createdAt,value
2018-06-02T00:03:27.203Z,22.40
2018-06-02T00:08:29.697Z,22.50
2018-06-02T00:13:32.304Z,22.60
2018-06-02T00:18:34.815Z,22.40
2018-06-02T00:23:37.328Z,22.40
2018-06-02T00:28:40.596Z,22.40
2018-06-02T00:33:43.103Z,22.30
2018-06-02T00:38:45.600Z,22.30
2018-06-02T00:43:48.108Z,22.30
2018-06-02T00:48:51.364Z,22.50
2018-06-02T00:53:53.904Z,22.20
2018-06-02T00:58:56.360Z,22.30
2018-06-02T01:03:58.860Z,22.20
2018-06-02T01:09:01.356Z,22.20
2018-06-02T01:14:03.859Z,22.20
2018-06-02T01:19:06.360Z,22.10
2018-06-02T01:24:08.867Z,22.20
2018-06-02T01:29:11.372Z,22.40
2018-06-02T01:34:14.674Z,22.00
2018-06-02T01:39:17.152Z,22.10
2018-06-02T01:44:19.644Z,22.10
2018-06-02T01:49:22.151Z,21.80
2018-06-02T01:54:24.644Z,22.00
2018-06-02T01:59:27.149Z,22.20
2018-06-02T02:04:30.440Z,21.90
2018-06-02T02:09:32.970Z,22.00
2018-06-02T02:14:36.228Z,21.80
2018-06-02T02:19:38.755Z,22.10
2018-06-02T02:24:42.037Z,22.00
2018-06-02T02:29:44.544Z,21.90
2018-06-02T02:34:47.039Z,21.70
2018-06-02T02:39:49.523Z,21.90
2018-06-02T02:44:52.048Z,21.90
2018-06-02T02:49:55.321Z,21.90
2018-06-02T02:54:57.819Z,21.90
2018-06-02T03:00:00.314Z,21.90
2018-06-02T03:05:02.816Z,21.70
2018-06-02T03:10:05.321Z,22.10
2018-06-02T03:15:07.820Z,22.00
2018-06-02T03:20:10.331Z,22.00
2018-06-02T03:25:13.600Z,21.70
2018-06-02T03:30:16.093Z,21.70
2018-06-02T03:35:18.593Z,21.80
2018-06-02T03:40:21.112Z,21.50
2018-06-02T03:45:23.591Z,22.00
2018-06-02T03:50:26.106Z,21.70
2018-06-02T03:55:29.373Z,21.70
2018-06-02T04:00:31.879Z,21.60
2018-06-02T04:05:34.384Z,21.70
2018-06-02T04:10:36.883Z,21.60
2018-06-02T04:15:39.414Z,21.90
2018-06-02T04:20:41.916Z,21.80
2018-06-02T04:25:45.183Z,21.70
2018-06-02T04:30:48.539Z,21.60
2018-06-02T04:35:51.044Z,21.70
2018-06-02T04:40:53.535Z,21.50
2018-06-02T04:45:56.040Z,21.20
2018-06-02T04:50:58.536Z,21.30
2018-06-02T04:56:01.032Z,21.50
2018-06-02T05:01:03.534Z,21.40
2018-06-02T05:06:06.016Z,21.50
2018-06-02T05:11:08.508Z,21.40
2018-06-02T05:16:10.991Z,21.20
2018-06-02T05:21:13.480Z,21.50
2018-06-02T05:26:15.971Z,21.50
2018-06-02T05:31:18.468Z,21.40
2018-06-02T05:36:21.729Z,21.60
2018-06-02T05:41:24.217Z,21.20
2018-06-02T05:46:26.708Z,21.50
2018-06-02T05:51:29.201Z,21.40
2018-06-02T05:56:31.692Z,21.20
2018-06-02T06:01:34.204Z,21.50
2018-06-02T06:06:37.510Z,21.60
2018-06-02T06:11:39.993Z,21.60
2018-06-02T06:16:43.249Z,21.50
2018-06-02T06:21:45.760Z,21.60
2018-06-02T06:26:48.292Z,21.50
2018-06-02T06:31:50.728Z,21.60
2018-06-02T06:36:53.221Z,21.60
2018-06-02T06:41:55.721Z,21.30
2018-06-02T06:46:58.222Z,21.40
2018-06-02T06:52:00.712Z,21.40
2018-06-02T06:57:03.204Z,21.40
2018-06-02T07:02:05.693Z,21.40
2018-06-02T07:07:08.207Z,21.60
2018-06-02T07:12:10.709Z,21.50
2018-06-02T07:17:13.201Z,21.40
2018-06-02T07:22:15.707Z,21.60
2018-06-02T07:27:18.191Z,21.40
2018-06-02T07:32:20.684Z,21.40
2018-06-02T07:37:23.177Z,21.30
2018-06-02T07:42:25.663Z,21.60
2018-06-02T07:47:28.147Z,21.60
2018-06-02T07:52:30.652Z,21.80
2018-06-02T07:57:33.182Z,21.80
2018-06-02T08:02:35.635Z,21.70
2018-06-02T08:07:38.121Z,21.60
2018-06-02T08:12:40.599Z,21.80
2018-06-02T08:17:43.111Z,21.60
2018-06-02T08:22:45.602Z,21.70
2018-06-02T08:27:48.089Z,21.80
2018-06-02T08:32:50.586Z,21.90
2018-06-02T08:37:54.168Z,21.90
2018-06-02T08:42:57.424Z,22.20
2018-06-02T08:47:59.907Z,22.10
2018-06-02T08:53:02.422Z,22.20
2018-06-02T08:58:04.915Z,22.00
2018-06-02T09:03:07.402Z,22.10
2018-06-02T09:08:09.895Z,22.10
2018-06-02T09:13:12.388Z,21.90
2018-06-02T09:18:14.893Z,22.30
2018-06-02T09:23:17.376Z,22.00
2018-06-02T09:28:19.886Z,22.00
2018-06-02T09:33:22.367Z,22.20
2018-06-02T09:38:24.888Z,22.40
2018-06-02T09:43:27.386Z,22.30
2018-06-02T09:48:29.873Z,22.20
2018-06-02T09:53:32.380Z,21.90
2018-06-02T09:58:35.656Z,22.40
2018-06-02T10:03:38.148Z,22.40
2018-06-02T10:08:40.659Z,22.50
2018-06-02T10:13:43.216Z,22.50
2018-06-02T10:18:45.720Z,22.60
2018-06-02T10:23:48.210Z,22.70
2018-06-02T10:28:50.693Z,22.50
2018-06-02T10:33:53.179Z,22.70
2018-06-02T10:38:55.689Z,22.60
2018-06-02T10:43:58.167Z,22.50
2018-06-02T10:49:00.664Z,22.70
2018-06-02T10:54:03.207Z,22.50
2018-06-02T10:59:06.472Z,22.70
2018-06-02T11:04:08.964Z,22.70
2018-06-02T11:09:11.451Z,22.70
2018-06-02T11:14:13.993Z,22.70
2018-06-02T11:19:16.488Z,22.80
2018-06-02T11:24:18.973Z,22.80
2018-06-02T11:29:21.460Z,22.80
2018-06-02T11:34:23.975Z,22.70
2018-06-02T11:39:27.230Z,22.60
2018-06-02T11:44:29.717Z,22.60
2018-06-02T11:49:32.209Z,22.70
2018-06-02T11:54:34.709Z,22.60
2018-06-02T11:59:37.211Z,22.60
2018-06-02T12:04:39.700Z,22.80
2018-06-02T12:09:42.193Z,22.70
2018-06-02T12:14:44.703Z,22.80
2018-06-02T12:19:47.203Z,22.80
2018-06-02T12:24:49.692Z,22.70
2018-06-02T12:29:52.192Z,23.00
2018-06-02T12:34:54.680Z,23.00
2018-06-02T12:39:57.216Z,23.10
2018-06-02T12:44:59.720Z,22.80
2018-06-02T12:50:02.995Z,23.20
2018-06-02T12:55:06.349Z,23.10
2018-06-02T13:00:08.832Z,23.20
2018-06-02T13:05:12.085Z,23.30
2018-06-02T13:10:14.579Z,23.30
2018-06-02T13:15:17.074Z,23.30
2018-06-02T13:20:19.581Z,23.40
2018-06-02T13:25:22.073Z,23.50
2018-06-02T13:30:24.552Z,23.50
2018-06-02T13:35:27.041Z,23.60
2018-06-02T13:40:29.528Z,23.30
2018-06-02T13:45:32.026Z,23.60
2018-06-02T13:50:34.517Z,23.70
2018-06-02T13:55:37.000Z,23.70
2018-06-02T14:00:39.480Z,23.80
2018-06-02T14:05:41.963Z,23.80
2018-06-02T14:10:44.501Z,23.90
2018-06-02T14:15:48.343Z,23.90
2018-06-02T14:20:51.443Z,24.00
2018-06-02T14:25:53.924Z,24.00
2018-06-02T14:30:56.431Z,24.00
2018-06-02T14:35:58.907Z,24.10
2018-06-02T14:41:01.394Z,24.10
2018-06-02T14:46:03.890Z,24.10
2018-06-02T14:51:06.483Z,24.10
2018-06-02T14:56:08.973Z,24.10
2018-06-02T15:01:11.462Z,24.20
2018-06-02T15:06:13.945Z,24.20
2018-06-02T15:11:16.520Z,24.10
2018-06-02T15:16:19.021Z,24.20
2018-06-02T15:21:22.911Z,24.20
2018-06-02T15:26:25.398Z,24.10
2018-06-02T15:31:27.884Z,24.20
2018-06-02T15:36:30.429Z,24.30
2018-06-02T15:41:33.010Z,24.40
2018-06-02T15:46:36.273Z,24.40
2018-06-02T15:51:38.765Z,24.40
2018-06-02T15:56:41.256Z,24.40
2018-06-02T16:01:43.753Z,24.40
2018-06-02T16:06:46.250Z,24.40
2018-06-02T16:11:48.745Z,24.40
2018-06-02T16:16:51.228Z,24.50
2018-06-02T16:21:53.713Z,24.50
2018-06-02T16:26:56.224Z,24.40
2018-06-02T16:31:58.709Z,24.50
2018-06-02T16:37:01.195Z,24.50
2018-06-02T16:42:03.710Z,24.60
2018-06-02T16:47:06.196Z,24.50
2018-06-02T16:52:08.696Z,24.50
2018-06-02T16:57:11.179Z,24.60
2018-06-02T17:02:13.663Z,24.60
2018-06-02T17:07:16.152Z,24.60
2018-06-02T17:12:18.720Z,24.60
2018-06-02T17:17:22.413Z,24.60
2018-06-02T17:22:24.895Z,24.60
2018-06-02T17:27:27.383Z,24.60
2018-06-02T17:32:29.877Z,24.60
2018-06-02T17:37:32.398Z,24.60
2018-06-02T17:42:35.660Z,24.60
2018-06-02T17:47:38.169Z,24.60
2018-06-02T17:52:40.702Z,24.60
2018-06-02T17:57:43.975Z,24.60
2018-06-02T18:02:46.476Z,24.60
2018-06-02T18:07:49.009Z,24.60
2018-06-02T18:12:51.541Z,24.60
2018-06-02T18:17:54.047Z,24.50
2018-06-02T18:22:56.552Z,24.50
2018-06-02T18:27:59.044Z,24.50
2018-06-02T18:33:01.527Z,24.50
2018-06-02T18:38:04.025Z,24.50
2018-06-02T18:43:06.537Z,24.50
2018-06-02T18:48:09.069Z,24.50
2018-06-02T18:53:11.569Z,24.40
2018-06-02T18:58:14.069Z,24.40
2018-06-02T19:03:16.608Z,24.40
2018-06-02T19:08:19.100Z,24.40
2018-06-02T19:13:21.597Z,24.40
2018-06-02T19:18:24.125Z,24.40
2018-06-02T19:23:26.663Z,24.30
2018-06-02T19:28:29.151Z,24.30
2018-06-02T19:33:31.653Z,24.20
2018-06-02T19:38:34.169Z,24.20
2018-06-02T19:43:36.659Z,24.20
2018-06-02T19:48:39.932Z,24.10
2018-06-02T19:53:42.427Z,24.10
2018-06-02T19:58:44.921Z,24.10
2018-06-02T20:03:47.420Z,24.10
2018-06-02T20:08:49.929Z,24.10
2018-06-02T20:13:52.424Z,24.00
2018-06-02T20:18:54.972Z,23.90
2018-06-02T20:23:58.235Z,23.90
2018-06-02T20:29:00.726Z,23.90
2018-06-02T20:34:03.224Z,23.80
2018-06-02T20:39:06.488Z,23.80
2018-06-02T20:44:08.993Z,23.80
2018-06-02T20:49:11.514Z,23.70
2018-06-02T20:54:14.013Z,23.60
2018-06-02T20:59:16.515Z,23.60
2018-06-02T21:04:19.796Z,23.50
2018-06-02T21:09:22.308Z,23.50
2018-06-02T21:14:24.803Z,23.40
2018-06-02T21:19:27.312Z,23.40
2018-06-02T21:24:30.594Z,23.30
2018-06-02T21:29:33.087Z,23.30
2018-06-02T21:34:35.572Z,23.30
2018-06-02T21:39:38.072Z,22.90
2018-06-02T21:44:40.555Z,23.20
2018-06-02T21:49:43.069Z,23.20
2018-06-02T21:54:45.561Z,22.90
2018-06-02T21:59:48.057Z,23.30
2018-06-02T22:04:50.573Z,23.00
2018-06-02T22:09:53.076Z,23.00
2018-06-02T22:14:55.572Z,23.00
2018-06-02T22:19:58.061Z,22.90
2018-06-02T22:25:00.545Z,22.50
2018-06-02T22:30:03.028Z,22.80
2018-06-02T22:35:06.312Z,22.70
2018-06-02T22:40:08.800Z,22.70
2018-06-02T22:45:11.317Z,22.70
2018-06-02T22:50:14.576Z,22.30
2018-06-02T22:55:17.075Z,22.60
2018-06-02T23:00:20.491Z,22.50
2018-06-02T23:05:22.996Z,22.40
2018-06-02T23:10:25.533Z,22.20
2018-06-02T23:15:28.796Z,22.40
2018-06-02T23:20:31.292Z,22.40
2018-06-02T23:25:33.776Z,22.30
2018-06-02T23:30:36.296Z,22.30
2018-06-02T23:35:38.788Z,22.00
2018-06-02T23:40:41.288Z,22.20
2018-06-02T23:45:44.562Z,22.30
2018-06-02T23:50:47.043Z,22.10
2018-06-02T23:55:49.539Z,22.30
